Time;durP1;ratioP1;P1;durP2;ratioP2;P2;SDS_P1;SDS_P2;PMS_P1;PMS_P2;Temp;Humidity;BMP_temperature;BMP_pressure;BME280_temperature;BME280_humidity;BME280_pressure;Samples;Min_cycle;Max_cycle;Signal;HPM_P1;HPM_P2
2022/07/14 00:00:15;;;;;;;2.83;2.67;;;20.80;63.30;;;;;;5216100;28;20178;-45
2022/07/14 00:02:45;;;;;;;3.50;3.20;;;20.80;63.90;;;;;;5203096;28;20231;-48
2022/07/14 00:05:16;;;;;;;3.20;2.90;;;20.70;64.20;;;;;;5221379;28;20671;-47
2022/07/14 00:07:47;;;;;;;2.67;2.43;;;20.60;64.50;;;;;;5209051;28;20609;-45
2022/07/14 00:10:17;;;;;;;3.60;3.07;;;20.60;65.30;;;;;;5184257;28;20236;-47
2022/07/14 00:12:48;;;;;;;2.67;2.43;;;20.50;65.60;;;;;;5186932;28;20285;-46
2022/07/14 00:15:19;;;;;;;2.63;2.40;;;20.50;66.40;;;;;;5204511;28;20186;-48
2022/07/14 00:17:50;;;;;;;5.10;2.90;;;20.40;67.10;;;;;;5195965;28;20753;-47
2022/07/14 00:20:20;;;;;;;2.50;2.40;;;20.30;67.80;;;;;;5222543;28;20191;-46
2022/07/14 00:22:51;;;;;;;2.60;2.50;;;20.30;68.70;;;;;;5204538;28;20457;-47
2022/07/14 00:25:26;;;;;;;9.23;2.67;;;20.20;69.70;;;;;;5204948;28;20720;-46
2022/07/14 00:27:57;;;;;;;2.70;2.60;;;20.20;70.80;;;;;;5216475;28;20195;-46
2022/07/14 00:30:27;;;;;;;3.27;3.00;;;20.10;71.80;;;;;;5217050;28;20434;-46
2022/07/14 00:32:58;;;;;;;2.40;2.30;;;20.10;73.20;;;;;;5205280;28;20186;-46
2022/07/14 00:35:29;;;;;;;6.23;3.30;;;20.10;74.20;;;;;;5208982;28;20253;-45
2022/07/14 00:37:59;;;;;;;2.30;2.20;;;20.10;75.70;;;;;;5221332;28;20215;-46
2022/07/14 00:40:30;;;;;;;4.20;2.80;;;20.00;77.20;;;;;;5218773;28;20219;-47
2022/07/14 00:43:01;;;;;;;3.47;2.50;;;19.90;79.10;;;;;;5203995;28;20211;-46
2022/07/14 00:45:32;;;;;;;4.13;2.40;;;19.80;80.80;;;;;;5217154;28;20180;-47
2022/07/14 00:48:03;;;;;;;2.73;2.53;;;19.80;82.50;;;;;;5217461;28;21071;-48
2022/07/14 00:50:33;;;;;;;1.97;1.90;;;19.70;84.40;;;;;;5220537;28;20190;-46
2022/07/14 00:53:09;;;;;;;9.70;2.30;;;19.70;86.50;;;;;;5228867;28;20199;-46
2022/07/14 00:55:41;;;;;;;3.07;2.30;;;19.60;88.90;;;;;;5206549;28;20186;-46
2022/07/14 00:58:12;;;;;;;3.73;3.07;;;19.50;90.10;;;;;;5218473;28;20453;-47
2022/07/14 01:00:44;;;;;;;2.20;2.10;;;19.50;90.60;;;;;;5211819;28;20491;-45
2022/07/14 01:03:15;;;;;;;8.93;1.93;;;19.40;90.80;;;;;;5221103;28;20253;-44
2022/07/14 01:05:45;;;;;;;2.43;2.20;;;19.40;91.40;;;;;;5214791;28;20784;-45
2022/07/14 01:08:16;;;;;;;2.47;2.03;;;19.40;91.80;;;;;;5179645;28;20289;-46
2022/07/14 01:10:47;;;;;;;4.13;2.60;;;19.40;92.20;;;;;;5204045;28;20228;-46
2022/07/14 01:13:18;;;;;;;2.67;2.07;;;19.40;92.60;;;;;;5221646;28;20264;-46
2022/07/14 01:15:48;;;;;;;2.90;2.43;;;19.30;93.40;;;;;;5204739;28;20183;-46
2022/07/14 01:18:19;;;;;;;7.30;2.20;;;19.30;94.20;;;;;;5221778;28;20480;-47
2022/07/14 01:20:50;;;;;;;2.40;1.93;;;19.20;94.70;;;;;;5202439;28;20187;-47
2022/07/14 01:23:20;;;;;;;3.00;2.50;;;19.20;95.30;;;;;;5208327;28;20206;-44
2022/07/14 01:25:51;;;;;;;2.17;2.07;;;19.10;95.90;;;;;;5221880;28;20221;-44
2022/07/14 01:28:21;;;;;;;2.13;1.93;;;19.10;96.50;;;;;;5201883;28;20592;-46
2022/07/14 01:30:52;;;;;;;2.00;1.73;;;19.00;96.80;;;;;;5203722;28;20180;-47
2022/07/14 01:33:22;;;;;;;1.87;1.77;;;18.90;97.00;;;;;;5217824;28;20180;-45
2022/07/14 01:35:53;;;;;;;2.67;2.47;;;18.90;96.20;;;;;;5216350;28;20231;-51
2022/07/14 01:38:23;;;;;;;3.07;1.93;;;18.80;95.00;;;;;;5198057;28;20210;-49
2022/07/14 01:40:54;;;;;;;4.63;1.80;;;18.80;94.40;;;;;;5216317;28;20281;-45
2022/07/14 01:43:25;;;;;;;2.77;1.60;;;18.80;94.40;;;;;;5202368;28;20293;-47
2022/07/14 01:45:55;;;;;;;2.53;1.80;;;18.70;94.50;;;;;;5220782;28;20191;-45
2022/07/14 01:48:26;;;;;;;1.80;1.73;;;18.70;95.80;;;;;;5219770;28;20727;-47
2022/07/14 01:50:56;;;;;;;2.20;2.00;;;18.60;96.50;;;;;;5214820;28;20658;-46
2022/07/14 01:53:27;;;;;;;1.90;1.80;;;18.60;96.80;;;;;;5206006;28;20274;-46
2022/07/14 01:55:58;;;;;;;1.90;1.77;;;18.60;97.20;;;;;;5207374;28;20179;-44
2022/07/14 01:58:28;;;;;;;2.83;2.03;;;18.50;97.30;;;;;;5214399;28;20582;-45
2022/07/14 02:03:48;;;;;;;5.27;2.47;;;18.40;98.00;;;;;;5215785;28;20688;-44
2022/07/14 02:06:18;;;;;;;2.40;1.90;;;18.30;98.50;;;;;;5204566;28;20460;-46
2022/07/14 02:08:49;;;;;;;2.93;1.87;;;18.30;99.30;;;;;;5222498;28;20206;-49
2022/07/14 02:14:10;;;;;;;1.90;1.80;;;18.20;99.90;;;;;;5213614;28;20194;-46
2022/07/14 02:16:40;;;;;;;2.73;1.80;;;18.10;99.90;;;;;;5208057;28;20425;-45
2022/07/14 02:19:11;;;;;;;1.60;1.50;;;18.00;99.90;;;;;;5204690;28;20266;-45
2022/07/14 02:21:43;;;;;;;5.20;2.00;;;18.00;99.90;;;;;;5220664;28;20194;-45
2022/07/14 02:24:13;;;;;;;1.87;1.73;;;18.00;99.90;;;;;;5224749;28;21044;-49
2022/07/14 02:26:44;;;;;;;4.83;2.27;;;17.90;99.90;;;;;;5207654;28;20493;-45
2022/07/14 02:29:15;;;;;;;4.67;1.87;;;17.80;99.90;;;;;;5218697;28;20217;-45
2022/07/14 02:31:46;;;;;;;5.17;1.93;;;17.70;99.90;;;;;;5216960;28;20208;-46
2022/07/14 02:34:17;;;;;;;1.57;1.57;;;17.70;99.90;;;;;;5219411;28;20270;-46
2022/07/14 02:36:47;;;;;;;5.53;1.50;;;17.60;99.90;;;;;;5223773;28;20436;-47
2022/07/14 02:39:18;;;;;;;1.67;1.60;;;17.60;99.90;;;;;;5220621;28;20236;-45
2022/07/14 02:41:49;;;;;;;1.83;1.43;;;17.60;99.90;;;;;;5207015;28;20670;-45
2022/07/14 02:44:19;;;;;;;4.30;2.20;;;17.40;99.90;;;;;;5206866;28;20289;-45
2022/07/14 02:46:50;;;;;;;4.90;2.20;;;17.40;99.90;;;;;;5208578;28;20206;-45
2022/07/14 02:49:21;;;;;;;4.50;1.57;;;17.40;99.90;;;;;;5200427;28;20186;-45
2022/07/14 02:51:52;;;;;;;1.70;1.63;;;17.30;99.90;;;;;;5217779;28;20260;-46
2022/07/14 02:54:23;;;;;;;2.87;1.97;;;17.30;99.90;;;;;;5203099;28;20194;-45
2022/07/14 02:56:54;;;;;;;1.90;1.63;;;17.20;99.90;;;;;;5217899;28;20552;-45
2022/07/14 02:59:25;;;;;;;2.00;1.70;;;17.20;99.90;;;;;;5209137;28;20524;-45
2022/07/14 03:01:55;;;;;;;5.17;1.90;;;17.10;99.90;;;;;;5205363;28;20253;-53
2022/07/14 03:04:26;;;;;;;13.97;2.37;;;17.00;99.90;;;;;;5223901;28;20737;-46
2022/07/14 03:06:56;;;;;;;10.27;2.20;;;16.90;99.90;;;;;;5223041;28;20645;-45
2022/07/14 03:09:27;;;;;;;4.20;1.50;;;16.90;99.90;;;;;;5205164;28;20195;-44
2022/07/14 03:11:58;;;;;;;8.23;2.57;;;16.80;99.90;;;;;;5226032;28;20175;-50
2022/07/14 03:14:28;;;;;;;7.73;2.60;;;16.70;99.90;;;;;;5225511;28;20182;-47
2022/07/14 03:16:59;;;;;;;7.67;2.13;;;16.70;99.90;;;;;;5211695;28;20473;-46
2022/07/14 03:19:29;;;;;;;6.73;2.10;;;16.70;99.90;;;;;;5205811;28;20197;-44
2022/07/14 03:22:00;;;;;;;2.93;1.87;;;16.70;99.90;;;;;;5215053;28;20193;-45
2022/07/14 03:24:31;;;;;;;11.73;2.13;;;16.60;99.90;;;;;;5224784;28;20627;-45
2022/07/14 03:27:01;;;;;;;9.17;2.97;;;16.60;99.90;;;;;;5220589;28;20199;-51
2022/07/14 03:29:32;;;;;;;10.40;2.37;;;16.50;99.90;;;;;;5204288;28;20179;-46
2022/07/14 03:32:03;;;;;;;15.90;2.57;;;16.50;99.90;;;;;;5219110;28;20616;-47
2022/07/14 03:34:33;;;;;;;6.77;1.63;;;16.50;99.90;;;;;;5214104;28;20620;-45
2022/07/14 03:37:04;;;;;;;8.13;2.23;;;16.50;99.90;;;;;;5215006;22;20226;-49
2022/07/14 03:39:35;;;;;;;3.30;2.40;;;16.50;99.90;;;;;;5223394;28;20188;-51
2022/07/14 03:42:06;;;;;;;8.30;2.57;;;16.50;99.90;;;;;;5220017;28;20504;-49
2022/07/14 03:44:37;;;;;;;3.80;2.23;;;16.50;99.90;;;;;;5212849;28;20472;-49
2022/07/14 03:47:07;;;;;;;8.23;2.40;;;16.50;99.90;;;;;;5219386;28;20262;-49
2022/07/14 03:49:38;;;;;;;13.93;2.90;;;16.50;99.90;;;;;;5202436;28;20219;-49
2022/07/14 03:52:09;;;;;;;8.80;2.47;;;16.50;99.90;;;;;;5197286;28;20611;-47
2022/07/14 03:54:46;;;;;;;10.07;2.73;;;16.40;99.90;;;;;;5195506;28;20290;-47
2022/07/14 03:57:16;;;;;;;3.23;1.87;;;16.30;99.90;;;;;;5215092;28;20480;-47
2022/07/14 03:59:48;;;;;;;18.23;3.60;;;16.30;99.90;;;;;;5221563;28;20477;-49
2022/07/14 04:02:18;;;;;;;7.80;2.30;;;16.30;99.90;;;;;;5214810;28;20271;-47
2022/07/14 04:04:49;;;;;;;6.60;2.27;;;16.30;99.90;;;;;;5200610;28;20904;-47
2022/07/14 04:07:19;;;;;;;8.90;2.60;;;16.30;99.90;;;;;;5213358;28;20207;-48
2022/07/14 04:09:50;;;;;;;7.03;2.40;;;16.40;99.90;;;;;;5201498;28;20658;-48
2022/07/14 04:12:21;;;;;;;4.30;2.20;;;16.40;99.90;;;;;;5195900;28;20203;-48
2022/07/14 04:14:51;;;;;;;8.63;2.90;;;16.30;99.90;;;;;;5213545;28;20179;-47
2022/07/14 04:17:22;;;;;;;9.13;3.57;;;16.40;99.90;;;;;;5202293;28;21893;-48
2022/07/14 04:19:52;;;;;;;9.40;2.60;;;16.30;99.90;;;;;;5214240;28;20186;-48
2022/07/14 04:22:23;;;;;;;4.60;2.37;;;16.30;99.90;;;;;;5215754;28;20187;-49
2022/07/14 04:24:53;;;;;;;9.77;2.20;;;16.30;99.90;;;;;;5220398;28;20212;-47
2022/07/14 04:27:24;;;;;;;15.07;2.73;;;16.40;99.90;;;;;;5210817;28;20659;-49
2022/07/14 04:29:55;;;;;;;7.20;2.40;;;16.50;99.90;;;;;;5211002;28;20191;-49
2022/07/14 04:32:26;;;;;;;9.07;3.03;;;16.60;99.90;;;;;;5212346;28;20790;-47
2022/07/14 04:34:57;;;;;;;8.50;2.20;;;16.70;99.90;;;;;;5214937;28;20233;-48
2022/07/14 04:37:27;;;;;;;8.30;3.07;;;16.80;99.90;;;;;;5202603;28;20206;-51
2022/07/14 04:39:58;;;;;;;8.13;2.47;;;16.80;99.90;;;;;;5209654;28;20183;-49
2022/07/14 04:42:29;;;;;;;16.30;2.63;;;16.90;99.90;;;;;;5200286;28;20214;-49
2022/07/14 04:44:59;;;;;;;5.03;2.17;;;17.00;99.90;;;;;;5218067;28;20187;-51
2022/07/14 04:47:30;;;;;;;5.93;2.00;;;17.00;99.90;;;;;;5197859;28;20706;-49
2022/07/14 04:52:58;;;;;;;14.30;2.63;;;17.20;99.90;;;;;;5208209;28;20178;-50
2022/07/14 04:55:28;;;;;;;4.43;2.30;;;17.50;99.90;;;;;;5203835;28;20440;-48
2022/07/14 04:57:59;;;;;;;6.30;2.30;;;18.40;99.90;;;;;;5204095;28;20663;-50
2022/07/14 05:00:30;;;;;;;6.37;2.00;;;19.80;97.20;;;;;;5213232;28;20175;-49
2022/07/14 05:03:01;;;;;;;10.43;2.37;;;21.30;92.00;;;;;;5177300;28;20508;-48
2022/07/14 05:05:32;;;;;;;14.53;2.20;;;22.30;82.80;;;;;;5215951;28;20188;-49
2022/07/14 05:08:02;;;;;;;11.97;3.57;;;22.30;74.70;;;;;;5206461;28;20302;-48
2022/07/14 05:10:33;;;;;;;6.00;2.17;;;22.80;72.00;;;;;;5217371;28;20187;-49
2022/07/14 05:13:03;;;;;;;15.17;2.53;;;23.60;68.10;;;;;;5186159;28;20176;-51
2022/07/14 05:15:34;;;;;;;16.90;2.10;;;23.70;65.10;;;;;;5207681;28;20554;-49
2022/07/14 05:18:05;;;;;;;9.87;2.73;;;24.50;61.10;;;;;;5227454;28;20203;-49
2022/07/14 05:20:35;;;;;;;9.47;1.90;;;25.50;57.90;;;;;;5209084;28;20799;-49
2022/07/14 05:23:06;;;;;;;7.20;2.20;;;26.20;54.70;;;;;;5214010;28;20200;-49
2022/07/14 05:25:39;;;;;;;3.33;2.67;;;26.60;52.80;;;;;;5222952;28;20308;-50
2022/07/14 05:28:09;;;;;;;3.20;1.73;;;27.10;50.40;;;;;;5217692;28;20203;-49
2022/07/14 05:30:40;;;;;;;6.63;1.70;;;26.90;49.10;;;;;;5203548;28;20474;-49
2022/07/14 05:33:10;;;;;;;9.43;2.27;;;26.80;48.20;;;;;;5210106;28;20199;-49
2022/07/14 05:35:41;;;;;;;2.43;1.67;;;26.80;48.10;;;;;;5225500;28;20183;-48
2022/07/14 05:38:12;;;;;;;9.00;1.67;;;27.10;47.80;;;;;;5219976;28;20211;-49
2022/07/14 05:40:42;;;;;;;7.83;1.93;;;28.30;46.00;;;;;;5207096;28;20787;-50
2022/07/14 05:43:14;;;;;;;4.13;1.67;;;28.40;44.00;;;;;;5201934;28;20210;-50
2022/07/14 05:45:45;;;;;;;3.47;2.00;;;28.10;44.90;;;;;;5219793;28;20258;-50
2022/07/14 05:48:16;;;;;;;2.60;1.57;;;27.50;45.10;;;;;;5219151;28;20462;-49
2022/07/14 05:50:46;;;;;;;9.83;2.40;;;27.20;45.90;;;;;;5207107;28;20476;-50
2022/07/14 05:53:17;;;;;;;2.93;1.67;;;27.20;46.00;;;;;;5208146;28;20183;-50
2022/07/14 05:55:47;;;;;;;3.70;2.33;;;26.30;46.70;;;;;;5215101;28;20639;-49
2022/07/14 05:58:18;;;;;;;8.17;2.23;;;25.90;48.30;;;;;;5222717;28;20547;-51
2022/07/14 06:00:49;;;;;;;10.40;2.17;;;26.30;47.20;;;;;;5196676;28;20194;-50
2022/07/14 06:03:19;;;;;;;8.43;1.53;;;27.60;46.00;;;;;;5208848;28;20207;-49
2022/07/14 06:05:51;;;;;;;3.17;1.90;;;29.50;43.60;;;;;;5185264;28;20186;-52
2022/07/14 06:08:21;;;;;;;5.03;1.73;;;30.70;40.60;;;;;;5198045;28;20579;-48
2022/07/14 06:10:52;;;;;;;5.30;2.30;;;31.40;38.70;;;;;;5199579;28;20440;-51
2022/07/14 06:13:27;;;;;;;6.70;1.90;;;30.30;38.00;;;;;;5213882;28;20217;-51
2022/07/14 06:15:58;;;;;;;2.03;1.00;;;29.70;40.00;;;;;;5220466;28;20194;-50
2022/07/14 06:18:28;;;;;;;5.83;2.13;;;30.00;39.00;;;;;;5209854;28;20771;-49
2022/07/14 06:20:59;;;;;;;5.60;2.37;;;29.70;39.90;;;;;;5217598;28;20184;-50
2022/07/14 06:23:29;;;;;;;2.60;1.53;;;30.50;39.20;;;;;;5195000;28;20571;-50
2022/07/14 06:26:07;;;;;;;4.37;1.97;;;30.70;38.90;;;;;;5201222;28;20186;-50
2022/07/14 06:28:38;;;;;;;5.10;1.60;;;31.10;37.40;;;;;;5214475;28;20194;-50
2022/07/14 06:31:09;;;;;;;3.40;1.73;;;31.40;36.10;;;;;;5208406;28;20491;-49
2022/07/14 06:33:40;;;;;;;11.53;1.93;;;30.40;37.90;;;;;;5219649;28;20191;-51
2022/07/14 06:36:11;;;;;;;4.30;1.47;;;29.00;40.00;;;;;;5207559;28;20880;-50
2022/07/14 06:38:41;;;;;;;5.33;1.90;;;28.10;40.90;;;;;;5218663;28;20556;-49
2022/07/14 06:41:13;;;;;;;6.93;1.67;;;27.20;43.00;;;;;;5222817;28;20962;-49
2022/07/14 06:43:44;;;;;;;2.20;1.43;;;25.20;45.10;;;;;;5228751;28;20214;-52
2022/07/14 06:46:15;;;;;;;7.83;1.97;;;26.30;46.40;;;;;;5209252;28;20488;-50
2022/07/14 06:48:46;;;;;;;8.87;2.27;;;28.80;41.00;;;;;;5223693;28;20639;-51
2022/07/14 06:51:17;;;;;;;3.33;1.60;;;30.30;37.90;;;;;;5197530;28;20829;-52
2022/07/14 06:53:47;;;;;;;4.33;1.63;;;30.50;36.70;;;;;;5199703;28;20582;-50
2022/07/14 06:56:18;;;;;;;2.97;1.87;;;31.10;36.90;;;;;;5208212;28;20783;-49
2022/07/14 06:58:49;;;;;;;4.20;2.30;;;32.70;34.10;;;;;;5221361;28;20206;-52
2022/07/14 07:01:19;;;;;;;7.20;1.90;;;34.20;31.90;;;;;;5222055;28;20448;-51
2022/07/14 07:03:50;;;;;;;3.13;1.30;;;34.30;31.00;;;;;;5218052;28;20573;-50
2022/07/14 07:07:03;;;;;;;2.20;1.00;;;33.80;30.00;;;;;;5223659;28;20185;-49
2022/07/14 07:09:16;;;;;;;5.33;1.77;;;34.20;30.10;;;;;;5207914;28;20203;-50
2022/07/14 07:11:50;;;;;;;4.20;1.03;;;35.10;29.50;;;;;;5225349;28;20228;-49
2022/07/14 07:14:21;;;;;;;4.40;1.43;;;35.10;29.10;;;;;;5225584;28;20194;-51
2022/07/14 07:16:52;;;;;;;5.30;1.20;;;33.80;29.50;;;;;;5227355;28;20179;-49
2022/07/14 07:19:22;;;;;;;3.07;1.97;;;32.30;31.40;;;;;;5209267;28;20186;-49
2022/07/14 07:21:53;;;;;;;3.10;1.50;;;31.50;32.20;;;;;;5206761;28;20277;-50
2022/07/14 07:24:23;;;;;;;2.47;1.13;;;30.80;33.10;;;;;;5228541;28;20211;-51
2022/07/14 07:26:54;;;;;;;2.57;1.87;;;31.70;31.80;;;;;;5224052;28;20520;-50
2022/07/14 07:29:24;;;;;;;5.97;1.37;;;32.70;30.30;;;;;;5211009;28;20186;-49
2022/07/14 07:31:55;;;;;;;1.97;1.47;;;33.30;29.90;;;;;;5204668;28;20195;-52
2022/07/14 07:34:25;;;;;;;3.00;0.90;;;32.90;29.60;;;;;;5212861;28;20236;-50
2022/07/14 07:36:56;;;;;;;15.67;1.87;;;32.00;29.50;;;;;;5208462;28;20182;-54
2022/07/14 07:39:27;;;;;;;5.10;2.07;;;32.70;29.30;;;;;;5205798;28;20593;-52
2022/07/14 07:42:00;;;;;;;1.87;0.90;;;34.10;28.50;;;;;;5220620;28;20577;-52
2022/07/14 07:44:31;;;;;;;1.47;1.37;;;34.30;27.90;;;;;;5205056;28;20210;-51
2022/07/14 07:47:02;;;;;;;4.10;1.80;;;33.50;27.90;;;;;;5223261;28;20552;-51
2022/07/14 07:49:33;;;;;;;4.37;1.33;;;33.80;28.00;;;;;;5212544;28;20623;-54
2022/07/14 07:52:04;;;;;;;3.87;1.60;;;34.10;27.50;;;;;;5197286;28;20298;-53
2022/07/14 07:54:36;;;;;;;7.70;1.57;;;32.80;27.90;;;;;;5223108;28;20190;-51
2022/07/14 07:57:06;;;;;;;5.20;1.40;;;32.90;29.00;;;;;;5215925;28;20178;-51
2022/07/14 07:59:37;;;;;;;2.57;0.90;;;33.60;28.70;;;;;;5215849;28;20190;-53
2022/07/14 08:02:08;;;;;;;4.83;1.60;;;33.70;28.00;;;;;;5221415;28;20186;-52
2022/07/14 08:04:39;;;;;;;3.53;1.83;;;34.40;27.90;;;;;;5224956;28;20218;-51
2022/07/14 08:07:09;;;;;;;5.70;1.20;;;34.50;27.20;;;;;;5220987;28;20210;-50
2022/07/14 08:09:40;;;;;;;1.20;1.10;;;33.90;27.20;;;;;;5199461;28;20240;-52
2022/07/14 08:12:11;;;;;;;2.77;1.03;;;33.90;27.40;;;;;;5196367;28;20179;-53
2022/07/14 08:14:51;;;;;;;2.27;1.00;;;34.10;27.90;;;;;;5187197;28;20204;-51
2022/07/14 08:17:22;;;;;;;2.63;1.20;;;34.90;27.70;;;;;;5221454;28;20236;-53
2022/07/14 08:19:53;;;;;;;7.28;1.50;;;36.00;26.50;;;;;;5203282;28;20262;-51
2022/07/14 08:22:25;;;;;;;2.57;1.60;;;36.00;25.60;;;;;;5198582;28;20174;-51
2022/07/14 08:24:57;;;;;;;1.70;1.30;;;35.30;25.90;;;;;;5203012;28;20684;-50
2022/07/14 08:27:28;;;;;;;2.53;1.47;;;34.30;26.20;;;;;;5220052;28;20813;-51
2022/07/14 08:29:58;;;;;;;5.30;1.50;;;34.00;26.60;;;;;;5210072;28;20186;-52
2022/07/14 08:32:45;;;;;;;3.20;1.53;;;34.70;26.70;;;;;;5221117;28;20241;-51
2022/07/14 08:35:18;;;;;;;1.27;1.17;;;34.60;25.90;;;;;;5204504;28;21271;-51
2022/07/14 08:37:50;;;;;;;3.30;1.40;;;33.70;26.20;;;;;;5217140;28;20273;-53
2022/07/14 08:40:24;;;;;;;0.60;0.57;;;32.60;27.30;;;;;;5202134;28;20655;-51
2022/07/14 08:42:56;;;;;;;1.07;0.90;;;31.70;28.50;;;;;;5218610;28;20719;-52
2022/07/14 08:45:27;;;;;;;3.80;0.93;;;31.70;27.30;;;;;;5200488;28;20430;-51
2022/07/14 08:47:57;;;;;;;2.90;1.90;;;31.70;28.30;;;;;;5220523;28;20563;-51
2022/07/14 08:50:28;;;;;;;2.00;0.87;;;32.10;27.80;;;;;;5224853;28;20234;-52
2022/07/14 08:53:03;;;;;;;2.73;1.27;;;32.30;27.30;;;;;;5217452;28;20254;-51
2022/07/14 08:55:34;;;;;;;2.20;1.40;;;32.30;27.30;;;;;;5214365;28;20179;-50
2022/07/14 08:58:05;;;;;;;4.30;1.40;;;31.20;28.70;;;;;;5202117;28;20523;-52
2022/07/14 09:00:36;;;;;;;3.53;0.80;;;29.10;30.50;;;;;;5204372;28;20273;-51
2022/07/14 09:03:06;;;;;;;2.43;1.10;;;27.10;34.40;;;;;;5185688;28;20564;-50
2022/07/14 09:05:41;;;;;;;10.10;1.50;;;26.00;36.80;;;;;;5221538;28;20553;-51
2022/07/14 09:08:13;;;;;;;2.40;0.77;;;25.00;36.90;;;;;;5195288;28;20697;-50
2022/07/14 09:10:46;;;;;;;5.13;1.40;;;24.00;37.50;;;;;;5188903;28;20867;-50
2022/07/14 09:13:19;;;;;;;1.73;1.63;;;23.40;38.70;;;;;;5215067;28;20461;-50
2022/07/14 09:16:16;;;;;;;5.17;1.90;;;23.30;39.60;;;;;;5222979;28;20469;-50
2022/07/14 09:19:09;;;;;;;6.27;1.60;;;23.20;39.70;;;;;;5207164;28;20523;-50
2022/07/14 09:21:54;;;;;;;1.53;1.43;;;23.10;38.70;;;;;;5205895;28;20480;-49
2022/07/14 09:24:25;;;;;;;2.03;1.83;;;22.80;39.00;;;;;;5200646;28;20715;-51
2022/07/14 09:26:56;;;;;;;2.20;0.90;;;22.90;39.70;;;;;;5217246;28;20452;-52
2022/07/14 09:29:29;;;;;;;1.27;0.80;;;22.80;39.30;;;;;;5210019;28;20180;-50
2022/07/14 09:32:00;;;;;;;8.00;1.10;;;22.50;39.90;;;;;;5200970;28;20469;-50
2022/07/14 09:34:32;;;;;;;1.40;1.30;;;22.30;40.20;;;;;;5214406;28;20949;-51
2022/07/14 09:37:14;;;;;;;3.23;1.13;;;22.20;40.50;;;;;;5220169;28;20509;-50
2022/07/14 09:39:56;;;;;;;3.17;0.77;;;22.00;40.60;;;;;;5202573;22;20498;-49
2022/07/14 09:42:47;;;;;;;2.53;1.00;;;21.80;39.80;;;;;;5174396;28;20467;-50
2022/07/14 09:45:38;;;;;;;5.07;1.20;;;21.90;39.80;;;;;;5178791;28;20943;-48
2022/07/14 09:48:11;;;;;;;1.07;0.93;;;22.00;40.60;;;;;;5171316;28;20533;-48
2022/07/14 09:51:03;;;;;;;1.47;0.70;;;22.20;39.50;;;;;;5170500;28;20447;-49
2022/07/14 09:53:35;;;;;;;0.80;0.80;;;22.20;38.80;;;;;;5179660;28;20957;-49
2022/07/14 09:56:08;;;;;;;2.10;0.93;;;22.10;38.10;;;;;;5174789;28;20474;-48
2022/07/14 09:58:54;;;;;;;1.70;0.70;;;21.80;38.50;;;;;;5172327;28;20455;-49
2022/07/14 10:01:25;;;;;;;3.07;0.90;;;21.90;38.90;;;;;;5160567;28;20909;-49
2022/07/14 10:03:58;;;;;;;2.87;1.17;;;21.90;39.30;;;;;;5174024;28;20609;-50
2022/07/14 10:06:29;;;;;;;1.37;1.03;;;21.90;39.70;;;;;;5178208;28;20195;-48
2022/07/14 10:09:00;;;;;;;2.37;1.17;;;22.00;39.80;;;;;;5171502;28;20443;-48
2022/07/14 10:11:33;;;;;;;1.23;0.80;;;22.00;40.40;;;;;;5169007;28;20436;-48
2022/07/14 10:14:04;;;;;;;3.00;1.00;;;22.00;40.10;;;;;;5175561;28;20435;-47
2022/07/14 10:16:35;;;;;;;5.60;1.37;;;21.90;40.60;;;;;;5176860;28;20427;-46
2022/07/14 10:19:06;;;;;;;2.73;1.03;;;21.90;40.70;;;;;;5179987;28;20465;-46
2022/07/14 10:21:37;;;;;;;1.00;0.80;;;21.90;40.30;;;;;;5170059;28;20180;-49
2022/07/14 10:24:09;;;;;;;2.10;1.13;;;21.80;40.40;;;;;;5172027;28;20475;-47
2022/07/14 10:26:40;;;;;;;3.50;1.00;;;21.80;39.00;;;;;;5167559;28;20432;-48
2022/07/14 10:29:12;;;;;;;8.97;1.27;;;21.80;40.00;;;;;;5167654;28;20522;-48
2022/07/14 10:31:45;;;;;;;1.27;1.10;;;21.90;40.90;;;;;;5170823;28;20454;-45
2022/07/14 10:34:42;;;;;;;6.00;1.77;;;21.90;41.10;;;;;;5178595;28;20973;-46
2022/07/14 10:37:26;;;;;;;4.00;1.10;;;21.80;41.30;;;;;;5170925;28;20442;-47
2022/07/14 10:40:24;;;;;;;4.07;1.10;;;21.80;41.50;;;;;;5169659;28;20567;-45
2022/07/14 10:43:06;;;;;;;4.37;2.70;;;21.90;40.50;;;;;;5177108;28;20978;-50
2022/07/14 10:45:54;;;;;;;1.13;0.70;;;22.10;40.30;;;;;;5166488;28;20451;-50
2022/07/14 10:48:29;;;;;;;0.90;0.80;;;22.20;38.70;;;;;;5179916;28;20967;-49
2022/07/14 10:51:14;;;;;;;1.90;0.70;;;22.10;39.10;;;;;;5174867;28;20438;-50
2022/07/14 10:54:10;;;;;;;1.83;1.73;;;22.10;39.20;;;;;;5173303;28;20444;-49
2022/07/14 10:56:43;;;;;;;8.03;1.33;;;22.10;39.00;;;;;;5173223;28;20444;-49
2022/07/14 10:59:26;;;;;;;2.43;1.40;;;22.10;38.20;;;;;;5176868;28;21017;-50
2022/07/14 11:02:14;;;;;;;2.90;1.00;;;22.10;38.90;;;;;;5173974;28;20462;-50
2022/07/14 11:04:59;;;;;;;9.10;4.70;;;22.20;39.10;;;;;;5175859;28;20836;-49
2022/07/14 11:07:43;;;;;;;6.20;3.30;;;22.10;38.80;;;;;;5172669;28;20442;-49
2022/07/14 11:10:19;;;;;;;2.60;1.30;;;22.20;39.30;;;;;;5168152;28;20446;-47
2022/07/14 11:13:05;;;;;;;6.10;2.27;;;22.10;38.60;;;;;;5169857;28;20542;-48
2022/07/14 11:15:49;;;;;;;0.83;0.70;;;22.20;39.50;;;;;;5172572;28;20444;-48
2022/07/14 11:18:21;;;;;;;3.13;1.03;;;22.30;39.10;;;;;;5168868;28;20487;-47
2022/07/14 11:21:16;;;;;;;1.40;1.00;;;22.50;38.90;;;;;;5176147;28;20522;-48
2022/07/14 11:23:47;;;;;;;1.77;0.90;;;22.70;38.90;;;;;;5179663;28;20463;-49
2022/07/14 11:26:41;;;;;;;7.63;1.17;;;22.80;38.40;;;;;;5175706;28;20891;-47
2022/07/14 11:29:12;;;;;;;4.53;1.03;;;22.70;38.50;;;;;;5171304;28;20205;-48
2022/07/14 11:31:51;;;;;;;2.50;0.97;;;22.70;38.70;;;;;;5174694;28;20504;-48
2022/07/14 11:37:15;;;;;;;1.13;0.77;;;22.60;36.90;;;;;;5178572;28;20529;-48
2022/07/14 11:39:47;;;;;;;3.27;1.40;;;22.50;37.80;;;;;;5177589;28;20483;-48
2022/07/14 11:42:17;;;;;;;0.93;0.90;;;22.50;37.80;;;;;;5174109;28;20906;-46
2022/07/14 11:44:51;;;;;;;1.63;1.40;;;22.50;38.30;;;;;;5177333;28;20212;-48
2022/07/14 11:47:30;;;;;;;1.83;1.17;;;22.40;37.60;;;;;;5171551;28;20184;-48
2022/07/14 11:50:07;;;;;;;3.23;1.23;;;22.40;38.30;;;;;;5183718;28;20489;-48
2022/07/14 11:52:39;;;;;;;2.90;1.37;;;22.60;38.50;;;;;;5194366;28;20962;-48
2022/07/14 11:55:15;;;;;;;1.30;1.20;;;22.60;38.30;;;;;;5192709;28;20459;-48
2022/07/14 11:57:51;;;;;;;1.70;1.60;;;22.70;37.80;;;;;;5181768;28;20945;-49
2022/07/14 12:00:21;;;;;;;2.43;1.60;;;22.80;37.50;;;;;;5169977;28;20462;-48
2022/07/14 12:02:54;;;;;;;3.93;2.10;;;22.90;36.70;;;;;;5180302;28;20447;-48
2022/07/14 12:05:26;;;;;;;1.13;0.60;;;23.00;36.80;;;;;;5178489;28;20243;-49
2022/07/14 12:08:02;;;;;;;2.73;1.03;;;23.00;37.10;;;;;;5180653;28;20458;-48
2022/07/14 12:10:37;;;;;;;2.30;0.77;;;22.80;37.20;;;;;;5177364;28;20438;-50
2022/07/14 12:13:08;;;;;;;0.57;0.57;;;22.90;36.50;;;;;;5181750;28;20443;-49
2022/07/14 12:15:39;;;;;;;1.17;0.87;;;22.80;35.70;;;;;;5180430;28;20434;-49
2022/07/14 12:18:11;;;;;;;3.30;0.80;;;22.80;36.70;;;;;;5177567;28;20469;-49
2022/07/14 12:20:44;;;;;;;1.23;1.00;;;22.80;35.90;;;;;;5179102;28;20188;-48
2022/07/14 12:23:15;;;;;;;2.40;1.10;;;22.90;36.00;;;;;;5177546;28;20566;-48
2022/07/14 12:25:47;;;;;;;0.70;0.70;;;23.10;36.50;;;;;;5171645;28;20451;-49
2022/07/14 12:28:19;;;;;;;3.50;1.10;;;23.20;35.90;;;;;;5173889;28;20464;-49
2022/07/14 12:30:54;;;;;;;0.93;0.83;;;23.10;34.00;;;;;;5164462;28;20439;-48
2022/07/14 12:33:27;;;;;;;0.97;0.57;;;22.90;34.70;;;;;;5176958;28;20957;-48
2022/07/14 12:36:00;;;;;;;1.97;0.90;;;22.80;35.10;;;;;;5175626;28;20444;-47
2022/07/14 12:38:36;;;;;;;2.80;1.37;;;22.80;35.50;;;;;;5170272;28;20514;-49
2022/07/14 12:41:07;;;;;;;0.73;0.70;;;22.90;35.60;;;;;;5173853;28;20434;-48
2022/07/14 12:43:40;;;;;;;0.53;0.53;;;23.10;35.50;;;;;;5176592;28;20865;-47
2022/07/14 12:46:17;;;;;;;0.97;0.70;;;23.10;35.40;;;;;;5179057;28;21112;-47
2022/07/14 12:48:50;;;;;;;1.53;1.00;;;23.10;35.90;;;;;;5174091;28;20487;-48
2022/07/14 12:51:24;;;;;;;0.87;0.87;;;23.20;35.10;;;;;;5170312;28;20436;-50
2022/07/14 12:53:57;;;;;;;4.00;0.70;;;23.10;35.80;;;;;;5175782;28;20439;-49
2022/07/14 12:56:49;;;;;;;2.87;0.60;;;23.10;35.50;;;;;;5171737;28;20820;-47
2022/07/14 12:59:28;;;;;;;0.90;0.90;;;23.20;36.10;;;;;;5175210;28;20474;-46
2022/07/14 13:02:02;;;;;;;6.63;2.50;;;23.40;36.90;;;;;;5180066;28;24227;-47
2022/07/14 13:04:41;;;;;;;4.90;2.13;;;23.50;36.20;;;;;;5179057;28;20467;-45
2022/07/14 13:07:25;;;;;;;2.73;0.73;;;23.40;35.70;;;;;;5180448;28;20522;-45
2022/07/14 13:10:12;;;;;;;0.90;0.90;;;23.40;35.70;;;;;;5176249;28;20481;-47
2022/07/14 13:12:45;;;;;;;1.80;0.93;;;23.50;36.30;;;;;;5175993;28;20427;-44
2022/07/14 13:15:24;;;;;;;0.87;0.87;;;23.50;36.00;;;;;;5173765;28;20431;-46
2022/07/14 13:18:00;;;;;;;2.97;1.07;;;23.50;36.00;;;;;;5183372;28;20466;-48
2022/07/14 13:20:48;;;;;;;1.80;0.77;;;23.40;36.20;;;;;;5191692;28;20760;-48
2022/07/14 13:23:32;;;;;;;1.30;0.63;;;23.40;35.90;;;;;;5179736;28;20546;-48
2022/07/14 13:26:17;;;;;;;0.57;0.57;;;23.30;35.40;;;;;;5170834;28;20475;-48